Porter Corners, NY

7:17 PM EDT on September 01, 2015 (GMT -0400)
Rt 9N Near Corinth/Greenfield Line | | Change Station
CLOSE
Current Station
Personal Weather Station
Location: Corinth, NY
Elevation: 690 ft
Nearby Weather Stations

Elev 690 ft 43.20 °N, 73.86 °W | Updated 1 minute ago

Clear
Clear
78.8 °F
Feels Like 81 °F
N
0.0
Wind Variable Wind from North
Gusts 2.0 mph

Today
High -- | Low -- °F
--% Chance of Precip.
Yesterday
High -- | Low -- °F
Precip. -- in
6:19 AM 7:30 PM
Waning Gibbous, 85% visible
Pressure 30.00 in
Visibility 10.0 miles
Clouds Clear
Heat Index 81 °F
Dew Point 65 °F
Humidity 62%
Rainfall 0.00 in
Snow Depth Not available.
UV 0 out of 12
Pollen 9.30 out of 12
Air Quality Not available.
Flu Activity Not available.
METAR KGFL 012253Z AUTO 18005KT 10SM CLR 26/17 A3000 RMK AO2 SLP158 T02610172
Pressure 30.00 in
Visibility 10.0 miles
Clouds Clear
Heat Index 81 °F
Dew Point 65 °F
Humidity 62%
Rainfall 0.00 in
Snow Depth Not available.
UV 0 out of 12
Pollen 9.30 out of 12
Air Quality Not available.
Flu Activity Not available.
METAR KGFL 012253Z AUTO 18005KT 10SM CLR 26/17 A3000 RMK AO2 SLP158 T02610172

10-Day Weather Forecast

×

Almanac

Astronomy

Sep. 01, 2015 Rise Set
Actual Time
Civil Twilight
Nautical Twilight
Astronomical Twilight
Moon
Length of Visible Light
Length of Day
Tomorrow will be .
, % of the Moon is Illuminated

Today's Extremes

State Highs State Lows

Community

WunderPhotos

Upload Photos

1,851,638 photos uploaded!

WunderBlogs® & News

Nearby

Air Quality

  Air Quality AQ Index Pollutant
Not available.

Snow Depth

Station Depth Elevation

Earthquake Activity

City Distance Mag. Time & Date
Minimum magnitude displayed is 2.5.

Coastal Water Temperatures

Place Temperature

Stations

Nearby Weather Stations

Station Location Temp. Windchill Dew Point Humidity Wind Precip. Elev Updated Type